createdAt,value
2018-09-09T00:00:19.630Z,74.96
2018-09-09T00:01:26.028Z,74.76
2018-09-09T00:02:32.425Z,74.62
2018-09-09T00:03:38.822Z,74.29
2018-09-09T00:04:45.169Z,75.42
2018-09-09T00:05:51.422Z,75.32
2018-09-09T00:06:57.860Z,75.28
2018-09-09T00:08:04.143Z,74.86
2018-09-09T00:09:10.805Z,75.67
2018-09-09T00:10:18.132Z,76.00
2018-09-09T00:11:25.201Z,77.55
2018-09-09T00:12:31.640Z,77.32
2018-09-09T00:13:37.953Z,77.04
2018-09-09T00:14:44.373Z,77.70
2018-09-09T00:15:50.710Z,77.63
2018-09-09T00:16:57.077Z,77.30
2018-09-09T00:18:03.642Z,76.70
2018-09-09T00:19:10.070Z,76.59
2018-09-09T00:20:20.112Z,76.47
2018-09-09T00:21:26.525Z,75.99
2018-09-09T00:22:32.969Z,75.52
2018-09-09T00:23:40.108Z,76.01
2018-09-09T00:24:46.925Z,76.09
2018-09-09T00:25:53.369Z,75.96
2018-09-09T00:26:59.780Z,75.75
2018-09-09T00:28:06.093Z,77.04
2018-09-09T00:29:12.467Z,76.21
2018-09-09T00:30:18.877Z,75.84
2018-09-09T00:31:25.204Z,75.55
2018-09-09T00:32:31.524Z,77.19
2018-09-09T00:33:37.818Z,77.28
2018-09-09T00:34:44.462Z,75.54
2018-09-09T00:35:51.291Z,75.96
2018-09-09T00:36:57.656Z,76.53
2018-09-09T00:38:04.134Z,76.26
2018-09-09T00:39:10.424Z,75.96
2018-09-09T00:40:16.828Z,76.21
2018-09-09T00:41:23.133Z,75.95
2018-09-09T00:42:29.440Z,75.77
2018-09-09T00:43:35.848Z,75.87
2018-09-09T00:44:42.305Z,76.08
2018-09-09T00:45:48.589Z,79.38
2018-09-09T00:46:55.008Z,77.59
2018-09-09T00:48:01.136Z,77.29
2018-09-09T00:49:07.313Z,77.30
2018-09-09T00:50:13.534Z,77.44
2018-09-09T00:53:14.577Z,75.10
2018-09-09T00:54:34.051Z,71.93
2018-09-09T00:55:40.417Z,72.17
2018-09-09T00:56:46.701Z,72.97
2018-09-09T00:57:53.023Z,72.49
2018-09-09T00:58:59.405Z,71.86
2018-09-09T01:00:05.053Z,72.29
2018-09-09T01:01:11.729Z,73.14
2018-09-09T01:02:16.892Z,74.08
2018-09-09T01:03:22.128Z,76.20
2018-09-09T01:04:28.410Z,75.15
2018-09-09T01:05:34.807Z,74.08
2018-09-09T01:06:41.142Z,73.99
2018-09-09T01:07:47.552Z,74.39
2018-09-09T01:08:53.967Z,74.71
2018-09-09T01:10:00.141Z,74.60
2018-09-09T01:11:07.280Z,75.51
2018-09-09T01:12:13.459Z,77.25
2018-09-09T01:13:19.853Z,77.57
2018-09-09T01:14:25.671Z,77.82
2018-09-09T01:15:32.069Z,78.31
2018-09-09T01:16:38.144Z,79.21
2018-09-09T01:17:44.285Z,79.93
2018-09-09T01:18:50.671Z,79.78
2018-09-09T01:19:57.003Z,79.28
2018-09-09T01:21:03.097Z,78.67
2018-09-09T01:22:09.798Z,78.54
2018-09-09T01:23:16.219Z,77.61
2018-09-09T01:24:22.549Z,76.26
2018-09-09T01:25:28.965Z,76.04
2018-09-09T01:26:35.079Z,75.03
2018-09-09T01:27:41.363Z,75.00
2018-09-09T01:28:47.501Z,76.16
2018-09-09T01:29:53.888Z,75.97
2018-09-09T01:30:59.607Z,76.82
2018-09-09T01:32:05.981Z,77.38
2018-09-09T01:33:12.004Z,77.30
2018-09-09T01:34:18.421Z,76.86
2018-09-09T01:35:24.864Z,76.76
2018-09-09T01:36:30.963Z,76.21
2018-09-09T01:37:37.255Z,75.68
2018-09-09T01:38:43.361Z,74.92
2018-09-09T01:39:49.708Z,74.98
2018-09-09T01:40:56.092Z,75.28
2018-09-09T01:42:02.505Z,76.24
2018-09-09T01:43:08.782Z,77.15
2018-09-09T01:44:15.724Z,76.66
2018-09-09T01:45:21.775Z,76.65
2018-09-09T01:46:28.177Z,75.30
2018-09-09T01:47:34.578Z,73.34
2018-09-09T01:48:41.037Z,73.39
2018-09-09T01:49:47.960Z,72.75
2018-09-09T01:50:54.024Z,72.78
2018-09-09T01:52:00.442Z,73.25
2018-09-09T01:53:06.408Z,72.84
2018-09-09T01:54:14.891Z,72.71
2018-09-09T01:55:22.172Z,74.82
2018-09-09T01:56:28.541Z,75.14
2018-09-09T01:57:34.925Z,75.46
2018-09-09T01:58:41.113Z,76.03
2018-09-09T01:59:47.512Z,76.59
2018-09-09T02:00:53.886Z,77.14
2018-09-09T02:02:00.337Z,77.56
2018-09-09T02:03:06.258Z,77.61
2018-09-09T02:04:12.655Z,77.78
2018-09-09T02:05:19.040Z,78.27
2018-09-09T02:06:25.416Z,78.34
2018-09-09T02:07:31.772Z,78.91
2018-09-09T02:08:38.085Z,78.33
2018-09-09T02:09:44.421Z,79.03
2018-09-09T02:10:50.704Z,79.57
2018-09-09T02:11:57.017Z,80.33
2018-09-09T02:13:03.356Z,80.17
2018-09-09T02:14:09.705Z,79.68
2018-09-09T02:15:16.051Z,79.14
2018-09-09T02:16:22.488Z,79.29
2018-09-09T02:17:28.769Z,79.01
2018-09-09T02:18:35.181Z,79.19
2018-09-09T02:19:41.527Z,79.12
2018-09-09T02:20:47.845Z,80.02
2018-09-09T02:21:54.152Z,80.27
2018-09-09T02:23:00.441Z,80.04
2018-09-09T02:24:06.554Z,79.90
2018-09-09T02:25:12.910Z,79.51
2018-09-09T02:26:19.179Z,79.92
2018-09-09T02:27:26.128Z,79.44
2018-09-09T02:28:32.536Z,80.06
2018-09-09T02:29:38.636Z,80.59
2018-09-09T02:30:45.046Z,79.46
2018-09-09T02:31:51.478Z,79.54
2018-09-09T02:32:57.781Z,79.33
2018-09-09T02:34:04.983Z,79.52
2018-09-09T02:35:11.433Z,80.81
2018-09-09T02:36:17.710Z,80.94
2018-09-09T02:37:23.919Z,81.05
2018-09-09T02:38:30.349Z,80.75
2018-09-09T02:39:36.804Z,80.23
2018-09-09T02:40:43.065Z,80.67
2018-09-09T02:41:49.369Z,80.87
2018-09-09T02:42:56.832Z,80.89
2018-09-09T02:44:03.250Z,81.67
2018-09-09T02:45:09.369Z,81.79
2018-09-09T02:46:17.489Z,81.50
2018-09-09T02:47:23.936Z,82.94
2018-09-09T02:48:30.356Z,83.71
2018-09-09T02:49:36.681Z,83.79
2018-09-09T02:50:42.977Z,83.10
2018-09-09T02:51:49.406Z,83.58
2018-09-09T02:52:55.592Z,84.51
2018-09-09T02:54:01.888Z,83.40
2018-09-09T02:55:08.284Z,83.48
2018-09-09T02:56:14.613Z,83.50
2018-09-09T02:57:20.921Z,83.55
2018-09-09T02:58:27.283Z,83.38
2018-09-09T02:59:33.604Z,83.19
2018-09-09T03:00:40.671Z,83.36
2018-09-09T03:01:46.773Z,83.93
2018-09-09T03:02:53.080Z,83.76
2018-09-09T03:03:59.509Z,83.97
2018-09-09T03:05:05.257Z,83.98
2018-09-09T03:06:11.622Z,84.24
2018-09-09T03:07:17.920Z,84.32
2018-09-09T03:08:24.040Z,83.74
2018-09-09T03:09:30.353Z,83.10
2018-09-09T03:10:36.426Z,83.84
2018-09-09T03:11:42.682Z,83.89
2018-09-09T03:12:48.982Z,84.17
2018-09-09T03:13:55.287Z,84.03
2018-09-09T03:15:01.625Z,83.04
2018-09-09T03:16:07.935Z,81.53
2018-09-09T03:17:14.380Z,79.91
2018-09-09T03:18:20.775Z,78.65
2018-09-09T03:19:27.064Z,78.83
2018-09-09T03:20:33.500Z,79.04
2018-09-09T03:21:39.830Z,78.15
2018-09-09T03:22:45.892Z,77.71
2018-09-09T03:23:52.214Z,77.93
2018-09-09T03:24:58.252Z,78.04
2018-09-09T03:26:04.670Z,78.47
2018-09-09T03:27:10.943Z,79.37
2018-09-09T03:28:17.336Z,79.52
2018-09-09T03:29:23.746Z,79.57
2018-09-09T03:30:30.219Z,80.20
2018-09-09T03:31:36.613Z,80.18
2018-09-09T03:32:42.904Z,80.04
2018-09-09T03:33:49.279Z,80.33
2018-09-09T03:34:55.543Z,81.64
2018-09-09T03:36:01.679Z,83.33
2018-09-09T03:37:08.052Z,84.00
2018-09-09T03:38:17.386Z,83.88
2018-09-09T03:39:23.737Z,83.75
2018-09-09T03:40:30.086Z,84.00
2018-09-09T03:41:36.413Z,83.45
2018-09-09T03:42:42.692Z,83.35
2018-09-09T03:43:48.995Z,82.48
2018-09-09T03:44:55.295Z,82.72
2018-09-09T03:46:01.640Z,82.59
2018-09-09T03:47:07.978Z,82.77
2018-09-09T03:48:14.035Z,82.94
2018-09-09T03:49:20.266Z,82.61
2018-09-09T03:50:26.691Z,82.48
2018-09-09T03:51:33.105Z,81.78
2018-09-09T03:52:40.452Z,80.58
2018-09-09T03:53:46.626Z,80.09
2018-09-09T03:54:53.199Z,80.09
2018-09-09T03:55:59.620Z,80.62
2018-09-09T03:57:05.962Z,81.24
2018-09-09T03:58:12.383Z,82.84
2018-09-09T03:59:19.636Z,83.31
2018-09-09T04:00:25.433Z,83.93
2018-09-09T04:01:32.178Z,83.55
2018-09-09T04:02:38.580Z,83.43
2018-09-09T04:03:45.197Z,83.31
2018-09-09T04:04:51.223Z,83.71
2018-09-09T04:05:58.580Z,84.83
2018-09-09T04:07:04.328Z,84.97
2018-09-09T04:08:10.696Z,85.16
2018-09-09T04:09:17.146Z,85.16
2018-09-09T04:10:23.445Z,85.25
2018-09-09T04:11:29.995Z,85.22
2018-09-09T04:12:36.648Z,84.90
2018-09-09T04:13:43.214Z,85.86
2018-09-09T04:14:50.499Z,86.09
2018-09-09T04:16:08.571Z,85.89
2018-09-09T04:17:14.851Z,85.98
2018-09-09T04:18:21.234Z,86.83
2018-09-09T04:19:27.678Z,86.93
2018-09-09T04:20:38.566Z,86.95
2018-09-09T04:21:44.794Z,86.69
2018-09-09T04:22:51.522Z,86.92
2018-09-09T04:23:58.007Z,86.89
2018-09-09T04:25:04.684Z,87.61
2018-09-09T04:26:11.131Z,88.28
2018-09-09T04:27:17.532Z,89.18
2018-09-09T04:28:23.990Z,89.58
2018-09-09T04:29:32.367Z,90.16
2018-09-09T04:30:39.949Z,90.05
2018-09-09T04:31:46.777Z,89.97
2018-09-09T04:32:54.209Z,89.49
2018-09-09T04:34:02.030Z,89.37
2018-09-09T04:35:10.904Z,89.23
2018-09-09T04:36:17.858Z,89.51
2018-09-09T04:37:24.252Z,88.06
2018-09-09T04:38:30.857Z,88.18
2018-09-09T04:39:38.098Z,87.85
2018-09-09T04:40:45.191Z,87.42
2018-09-09T04:41:52.976Z,87.35
2018-09-09T04:42:59.652Z,88.25
2018-09-09T04:44:07.930Z,87.56
2018-09-09T04:45:14.878Z,87.44
2018-09-09T04:46:21.868Z,88.05
2018-09-09T04:47:28.525Z,87.82
2018-09-09T04:48:35.111Z,87.77
2018-09-09T04:49:41.651Z,87.74
2018-09-09T04:50:47.936Z,87.52
2018-09-09T04:51:54.379Z,87.29
2018-09-09T04:53:00.890Z,86.53
2018-09-09T04:54:07.975Z,85.41
2018-09-09T04:55:14.642Z,85.15
2018-09-09T04:56:21.340Z,85.50
2018-09-09T04:57:27.894Z,84.91
2018-09-09T04:58:33.927Z,84.95
2018-09-09T04:59:40.437Z,86.86
2018-09-09T05:00:48.072Z,88.43
2018-09-09T05:01:54.715Z,88.85
2018-09-09T05:03:01.976Z,89.38
2018-09-09T05:04:08.736Z,89.64
2018-09-09T05:05:15.447Z,89.09
2018-09-09T05:06:22.149Z,89.24
2018-09-09T05:07:28.892Z,89.65
2018-09-09T05:08:35.646Z,89.56
2018-09-09T05:09:42.426Z,89.98
2018-09-09T05:10:49.160Z,90.06
2018-09-09T05:11:56.801Z,89.80
2018-09-09T05:13:03.839Z,89.93
2018-09-09T05:14:10.656Z,89.28
2018-09-09T05:15:17.800Z,88.36
2018-09-09T05:16:24.982Z,87.70
2018-09-09T05:17:31.465Z,87.60
2018-09-09T05:18:38.978Z,88.02
2018-09-09T05:19:47.703Z,88.36
2018-09-09T05:20:57.634Z,86.73
2018-09-09T05:22:04.971Z,87.95
2018-09-09T05:23:11.346Z,88.74
2018-09-09T05:24:17.683Z,88.74
2018-09-09T05:25:24.036Z,88.62
2018-09-09T05:26:30.680Z,88.65
2018-09-09T05:27:37.164Z,88.32
2018-09-09T05:28:44.036Z,87.40
2018-09-09T05:29:51.365Z,86.13
2018-09-09T05:30:57.880Z,85.85
2018-09-09T05:32:04.824Z,85.24
2018-09-09T05:33:12.388Z,84.19
2018-09-09T05:34:20.108Z,84.11
2018-09-09T05:35:26.686Z,84.12
2018-09-09T05:36:33.167Z,84.26
2018-09-09T05:37:39.887Z,84.33
2018-09-09T05:38:46.547Z,84.20
2018-09-09T05:39:53.908Z,83.97
2018-09-09T05:41:02.821Z,83.97
2018-09-09T05:42:10.916Z,84.92
2018-09-09T05:43:17.428Z,85.75
2018-09-09T05:44:25.396Z,86.26
2018-09-09T05:45:31.934Z,87.29
2018-09-09T05:46:39.212Z,86.92
2018-09-09T05:47:46.314Z,87.00
2018-09-09T05:48:53.577Z,86.62
2018-09-09T05:50:00.221Z,86.61
2018-09-09T05:51:06.632Z,86.18
2018-09-09T05:52:15.346Z,86.55
2018-09-09T05:53:21.964Z,87.16
2018-09-09T05:54:29.941Z,86.62
2018-09-09T05:55:36.637Z,86.29
2018-09-09T05:56:44.320Z,86.32
2018-09-09T05:57:51.284Z,85.59
2018-09-09T05:58:57.873Z,85.64
2018-09-09T06:00:04.688Z,86.94
2018-09-09T06:01:12.474Z,86.91
2018-09-09T06:02:20.347Z,86.77
2018-09-09T06:03:27.950Z,87.12
2018-09-09T06:04:34.607Z,87.43
2018-09-09T06:05:41.874Z,86.84
2018-09-09T06:06:49.609Z,85.99
2018-09-09T06:07:57.505Z,86.35
2018-09-09T06:09:05.438Z,86.25
2018-09-09T06:10:12.739Z,86.25
2018-09-09T06:11:20.050Z,85.60
2018-09-09T06:12:28.306Z,85.72
2018-09-09T06:13:35.035Z,86.12
2018-09-09T06:14:41.726Z,86.63
2018-09-09T06:15:49.428Z,86.48
2018-09-09T06:16:56.370Z,85.90
2018-09-09T06:18:03.231Z,86.16
2018-09-09T06:19:09.609Z,84.84
2018-09-09T06:20:16.241Z,85.38
2018-09-09T06:21:23.097Z,84.27
2018-09-09T06:22:31.052Z,83.19
2018-09-09T06:23:38.441Z,83.25
2018-09-09T06:24:45.031Z,83.36
2018-09-09T06:25:51.841Z,83.29
2018-09-09T06:26:58.292Z,83.46
2018-09-09T06:28:05.562Z,82.73
2018-09-09T06:29:12.397Z,81.22
2018-09-09T06:30:19.948Z,80.27
2018-09-09T06:31:26.850Z,79.02
2018-09-09T06:32:33.782Z,79.31
2018-09-09T06:33:40.573Z,78.54
2018-09-09T06:34:47.287Z,78.31
2018-09-09T06:35:54.469Z,78.38
2018-09-09T06:37:01.385Z,77.92
2018-09-09T06:38:08.498Z,77.87
2018-09-09T06:39:14.994Z,78.45
2018-09-09T06:40:21.528Z,78.48
2018-09-09T06:41:29.120Z,78.36
2018-09-09T06:42:35.768Z,77.73
2018-09-09T06:43:43.248Z,77.45
2018-09-09T06:44:50.242Z,77.23
2018-09-09T06:45:56.785Z,77.12
2018-09-09T06:47:03.650Z,76.88
2018-09-09T06:48:11.169Z,75.12
2018-09-09T06:49:17.684Z,74.44
2018-09-09T06:50:24.096Z,72.67
2018-09-09T06:51:30.467Z,72.43
2018-09-09T06:52:37.901Z,73.93
2018-09-09T06:53:47.571Z,74.52
2018-09-09T06:54:54.761Z,73.31
2018-09-09T06:56:02.709Z,73.82
2018-09-09T06:57:09.326Z,73.49
2018-09-09T06:58:16.042Z,73.24
2018-09-09T06:59:22.988Z,73.88
2018-09-09T07:00:29.706Z,73.02
2018-09-09T07:01:36.322Z,73.48
2018-09-09T07:02:43.868Z,71.37
2018-09-09T07:03:50.842Z,71.11
2018-09-09T07:04:58.304Z,71.82
2018-09-09T07:06:04.805Z,73.32
2018-09-09T07:07:11.680Z,72.88
2018-09-09T07:08:18.492Z,71.29
2018-09-09T07:09:24.993Z,70.41
2018-09-09T07:10:32.105Z,70.06
2018-09-09T07:11:39.722Z,68.99
2018-09-09T07:12:46.605Z,68.56
2018-09-09T07:13:53.200Z,67.66
2018-09-09T07:14:59.717Z,66.59
2018-09-09T07:16:06.132Z,67.61
2018-09-09T07:17:12.611Z,67.81
2018-09-09T07:18:20.821Z,67.01
2018-09-09T07:19:27.955Z,66.07
2018-09-09T07:20:34.506Z,66.47
2018-09-09T07:21:41.297Z,66.52
2018-09-09T07:22:48.330Z,67.18
2018-09-09T07:23:55.155Z,68.19
2018-09-09T07:25:02.587Z,68.70
2018-09-09T07:26:09.104Z,69.15
2018-09-09T07:27:15.467Z,69.76
2018-09-09T07:28:21.966Z,69.92
2018-09-09T07:29:28.541Z,70.12
2018-09-09T07:30:34.936Z,69.64
2018-09-09T07:31:41.329Z,69.25
2018-09-09T07:32:48.766Z,69.33
2018-09-09T07:33:55.122Z,69.82
2018-09-09T07:35:02.120Z,69.14
2018-09-09T07:36:08.573Z,69.09
2018-09-09T07:37:14.918Z,69.38
2018-09-09T07:38:23.070Z,67.88
2018-09-09T07:39:29.864Z,67.90
2018-09-09T07:40:37.803Z,68.09
2018-09-09T07:41:45.865Z,68.59
2018-09-09T07:42:52.789Z,67.08
2018-09-09T07:44:09.165Z,65.58
2018-09-09T07:45:26.315Z,65.87
2018-09-09T07:46:44.520Z,65.24
2018-09-09T07:47:54.306Z,65.01
2018-09-09T07:49:00.757Z,63.98
2018-09-09T07:50:07.851Z,64.48
2018-09-09T07:51:16.375Z,63.20
2018-09-09T07:52:23.101Z,62.20
2018-09-09T07:53:30.344Z,61.26
2018-09-09T07:54:36.804Z,62.27
2018-09-09T07:55:43.256Z,61.75
2018-09-09T07:56:49.534Z,61.25
2018-09-09T07:57:55.829Z,62.62
2018-09-09T07:59:04.440Z,61.04
2018-09-09T08:00:12.114Z,60.45
2018-09-09T08:01:20.293Z,59.88
2018-09-09T08:02:27.293Z,60.71
2018-09-09T08:03:34.204Z,60.83
2018-09-09T08:04:41.228Z,61.13
2018-09-09T08:05:49.898Z,60.80
2018-09-09T08:07:05.692Z,61.18
2018-09-09T08:08:22.912Z,60.38
2018-09-09T08:09:42.489Z,60.66
2018-09-09T08:12:30.017Z,60.38
2018-09-09T08:13:47.841Z,61.25
2018-09-09T08:15:03.572Z,61.17
2018-09-09T08:16:21.560Z,61.68
2018-09-09T08:17:35.860Z,60.69
2018-09-09T08:18:53.607Z,59.85
2018-09-09T08:20:11.772Z,58.37
2018-09-09T08:21:29.854Z,58.89
2018-09-09T08:22:47.524Z,58.93
2018-09-09T08:24:04.848Z,58.88
2018-09-09T08:25:25.556Z,59.81
2018-09-09T08:26:40.668Z,59.35
2018-09-09T08:28:00.019Z,59.93
2018-09-09T08:29:18.741Z,59.59
2018-09-09T08:30:41.214Z,60.33
2018-09-09T08:32:14.426Z,60.79
2018-09-09T08:33:35.251Z,60.55
2018-09-09T08:34:56.807Z,61.49
2018-09-09T08:36:14.999Z,60.65
2018-09-09T08:37:33.426Z,60.88
2018-09-09T08:38:53.212Z,59.20
2018-09-09T08:40:14.098Z,60.57
2018-09-09T08:41:24.613Z,61.15
2018-09-09T08:42:33.249Z,60.33
2018-09-09T08:43:40.036Z,60.66
2018-09-09T08:44:47.905Z,60.61
2018-09-09T08:45:55.751Z,60.48
2018-09-09T08:47:02.517Z,60.26
2018-09-09T08:48:09.371Z,58.94
2018-09-09T08:49:17.850Z,58.63
2018-09-09T08:50:24.786Z,58.62
2018-09-09T08:51:31.222Z,58.45
2018-09-09T08:52:37.507Z,58.88
2018-09-09T08:53:43.807Z,58.60
2018-09-09T08:54:50.210Z,58.30
2018-09-09T08:55:56.619Z,57.92
2018-09-09T08:57:02.954Z,57.74
2018-09-09T08:58:09.290Z,56.42
2018-09-09T08:59:15.823Z,57.86
2018-09-09T09:00:24.508Z,56.98
2018-09-09T09:01:30.878Z,55.35
2018-09-09T09:02:37.653Z,54.90
2018-09-09T09:03:44.905Z,55.24
2018-09-09T09:04:51.332Z,53.54
2018-09-09T09:05:57.383Z,53.75
2018-09-09T09:07:03.717Z,53.44
2018-09-09T09:08:10.095Z,53.65
2018-09-09T09:09:16.668Z,53.14
2018-09-09T09:10:23.012Z,52.90
2018-09-09T09:11:29.568Z,53.83
2018-09-09T09:12:35.980Z,53.18
2018-09-09T09:13:42.310Z,53.71
2018-09-09T09:14:48.834Z,52.43
2018-09-09T09:15:55.324Z,52.53
2018-09-09T09:17:01.432Z,53.16
2018-09-09T09:18:07.755Z,52.58
2018-09-09T09:19:14.207Z,52.84
2018-09-09T09:20:20.612Z,52.34
2018-09-09T09:21:27.040Z,51.21
2018-09-09T09:22:33.291Z,49.66
2018-09-09T09:23:39.780Z,50.42
2018-09-09T09:24:46.372Z,49.81
2018-09-09T09:25:52.676Z,49.20
2018-09-09T09:26:59.116Z,49.80
2018-09-09T09:28:05.598Z,49.34
2018-09-09T09:29:13.198Z,49.53
2018-09-09T09:30:19.767Z,48.93
2018-09-09T09:31:26.116Z,50.15
2018-09-09T09:32:32.530Z,48.72
2018-09-09T09:33:39.026Z,48.00
2018-09-09T09:34:45.340Z,47.37
2018-09-09T09:35:51.569Z,47.43
2018-09-09T09:36:57.900Z,47.67
2018-09-09T09:38:04.336Z,47.93
2018-09-09T09:39:10.333Z,47.22
2018-09-09T09:40:16.365Z,46.58
2018-09-09T09:41:22.712Z,46.24
2018-09-09T09:42:29.076Z,45.81
2018-09-09T09:43:35.010Z,46.84
2018-09-09T09:44:41.491Z,47.26
2018-09-09T09:45:48.008Z,46.81
2018-09-09T09:46:54.406Z,47.10
2018-09-09T09:48:00.735Z,46.24
2018-09-09T09:49:07.108Z,45.05
2018-09-09T09:50:13.485Z,45.96
2018-09-09T09:51:19.872Z,46.24
2018-09-09T09:52:26.233Z,44.83
2018-09-09T09:53:32.255Z,45.57
2018-09-09T09:54:38.839Z,45.58
2018-09-09T09:55:45.152Z,45.39
2018-09-09T09:56:51.432Z,44.74
2018-09-09T09:57:58.664Z,44.92
2018-09-09T09:59:05.941Z,45.49
2018-09-09T10:00:12.668Z,45.67
2018-09-09T10:01:19.097Z,44.91
2018-09-09T10:02:27.162Z,45.33
2018-09-09T10:03:33.867Z,45.53
2018-09-09T10:04:40.573Z,45.28
2018-09-09T10:05:47.402Z,45.96
2018-09-09T10:06:56.369Z,45.05
2018-09-09T10:08:05.159Z,46.30
2018-09-09T10:09:12.896Z,44.56
2018-09-09T10:10:19.818Z,44.77
2018-09-09T10:11:27.317Z,44.21
2018-09-09T10:12:33.911Z,44.05
2018-09-09T10:13:41.220Z,44.18
2018-09-09T10:14:47.597Z,45.46
2018-09-09T10:15:54.218Z,43.87
2018-09-09T10:17:00.747Z,44.12
2018-09-09T10:18:07.141Z,43.93
2018-09-09T10:19:13.757Z,43.82
2018-09-09T10:20:20.712Z,43.84
2018-09-09T10:21:27.745Z,43.62
2018-09-09T10:22:35.133Z,44.88
2018-09-09T10:23:42.998Z,43.69
2018-09-09T10:24:49.477Z,45.18
2018-09-09T10:25:55.910Z,45.70
2018-09-09T10:27:02.231Z,45.55
2018-09-09T10:28:08.632Z,43.50
2018-09-09T10:29:15.063Z,43.77
2018-09-09T10:30:21.496Z,43.33
2018-09-09T10:31:27.803Z,44.89
2018-09-09T10:32:34.195Z,42.75
2018-09-09T10:33:40.776Z,42.77
2018-09-09T10:34:47.025Z,42.22
2018-09-09T10:35:53.446Z,43.17
2018-09-09T10:36:59.415Z,43.35
2018-09-09T10:38:06.023Z,43.34
2018-09-09T10:39:12.289Z,43.54
2018-09-09T10:40:18.592Z,42.74
2018-09-09T10:41:24.864Z,42.42
2018-09-09T10:42:31.132Z,42.77
2018-09-09T10:43:37.401Z,43.59
2018-09-09T10:44:43.725Z,42.88
2018-09-09T10:45:50.125Z,41.60
2018-09-09T10:46:56.539Z,41.35
2018-09-09T10:48:03.069Z,41.80
2018-09-09T10:49:09.064Z,43.15
2018-09-09T10:50:15.523Z,41.67
2018-09-09T10:51:21.593Z,41.31
2018-09-09T10:52:27.885Z,41.16
2018-09-09T10:53:34.349Z,40.75
2018-09-09T10:54:40.648Z,40.88
2018-09-09T10:55:47.981Z,43.04
2018-09-09T10:56:54.296Z,41.38
2018-09-09T10:58:00.537Z,41.67
2018-09-09T10:59:06.844Z,41.34
2018-09-09T11:00:13.115Z,40.53
2018-09-09T11:01:19.401Z,40.59
2018-09-09T11:02:25.702Z,40.71
2018-09-09T11:03:31.915Z,39.38
2018-09-09T11:04:38.197Z,39.03
2018-09-09T11:05:44.499Z,40.06
2018-09-09T11:06:50.604Z,40.12
2018-09-09T11:07:56.756Z,40.08
2018-09-09T11:09:02.799Z,40.95
2018-09-09T11:10:08.748Z,42.04
2018-09-09T11:11:15.072Z,39.46
2018-09-09T11:12:20.765Z,39.12
2018-09-09T11:13:27.028Z,39.72
2018-09-09T11:14:33.491Z,40.85
2018-09-09T11:15:39.881Z,40.07
2018-09-09T11:16:45.871Z,38.82
2018-09-09T11:17:51.774Z,38.46
2018-09-09T11:18:57.733Z,38.50
2018-09-09T11:20:03.811Z,38.45
2018-09-09T11:21:10.118Z,39.81
2018-09-09T11:22:16.401Z,39.53
2018-09-09T11:23:22.673Z,39.01
2018-09-09T11:24:28.940Z,38.46
2018-09-09T11:25:35.400Z,38.42
2018-09-09T11:26:41.641Z,38.44
2018-09-09T11:27:47.614Z,38.13
2018-09-09T11:28:53.867Z,37.85
2018-09-09T11:30:00.223Z,37.19
2018-09-09T11:31:06.720Z,36.90
2018-09-09T11:32:13.004Z,37.21
2018-09-09T11:33:19.269Z,38.62
2018-09-09T11:34:25.523Z,38.60
2018-09-09T11:35:31.795Z,37.72
2018-09-09T11:36:38.024Z,38.67
2018-09-09T11:37:44.248Z,38.76
2018-09-09T11:38:50.582Z,37.97
2018-09-09T11:39:56.863Z,37.87
2018-09-09T11:41:03.600Z,38.07
2018-09-09T11:42:13.505Z,37.79
2018-09-09T11:43:19.697Z,37.57
2018-09-09T11:44:25.953Z,37.19
2018-09-09T11:45:31.936Z,37.59
2018-09-09T11:46:38.210Z,37.78
2018-09-09T11:47:44.473Z,37.87
2018-09-09T11:48:50.363Z,37.43
2018-09-09T11:49:56.610Z,37.64
2018-09-09T11:51:02.496Z,38.79
2018-09-09T11:52:08.759Z,38.97
2018-09-09T11:53:15.177Z,38.54
2018-09-09T11:54:20.918Z,39.12
2018-09-09T11:55:27.637Z,38.04
2018-09-09T11:56:33.253Z,37.78
2018-09-09T11:57:38.825Z,38.11
2018-09-09T11:58:44.357Z,37.58
2018-09-09T11:59:50.645Z,37.71
2018-09-09T12:00:56.855Z,37.65
2018-09-09T12:02:03.170Z,37.96
2018-09-09T12:03:09.597Z,37.14
2018-09-09T12:04:16.164Z,39.18
2018-09-09T12:05:22.388Z,38.23
2018-09-09T12:06:28.700Z,38.34
2018-09-09T12:07:35.044Z,38.17
2018-09-09T12:08:41.412Z,37.50
2018-09-09T12:09:47.660Z,37.98
2018-09-09T12:10:53.647Z,39.05
2018-09-09T12:12:00.067Z,40.18
2018-09-09T12:13:06.115Z,39.35
2018-09-09T12:14:12.548Z,39.32
2018-09-09T12:15:18.963Z,39.16
2018-09-09T12:16:25.193Z,39.02
2018-09-09T12:17:31.514Z,38.46
2018-09-09T12:18:37.806Z,39.05
2018-09-09T12:19:44.891Z,39.37
2018-09-09T12:20:51.074Z,39.35
2018-09-09T12:21:57.470Z,40.23
2018-09-09T12:23:03.799Z,39.49
2018-09-09T12:24:10.063Z,38.66
2018-09-09T12:25:16.313Z,39.11
2018-09-09T12:26:22.615Z,38.90
2018-09-09T12:27:29.013Z,39.03
2018-09-09T12:28:35.432Z,39.05
2018-09-09T12:29:41.745Z,38.62
2018-09-09T12:30:48.157Z,38.28
2018-09-09T12:31:54.599Z,38.98
2018-09-09T12:33:00.908Z,38.64
2018-09-09T12:34:07.306Z,37.93
2018-09-09T12:35:13.592Z,37.90
2018-09-09T12:36:19.902Z,38.32
2018-09-09T12:37:26.202Z,38.59
2018-09-09T12:38:32.133Z,38.07
2018-09-09T12:39:38.379Z,38.34
2018-09-09T12:40:44.690Z,38.21
2018-09-09T12:41:51.007Z,38.93
2018-09-09T12:42:57.045Z,38.92
2018-09-09T12:44:03.099Z,38.38
2018-09-09T12:46:56.301Z,37.61
2018-09-09T12:48:31.213Z,36.88
2018-09-09T12:49:50.440Z,36.12
2018-09-09T12:51:01.542Z,36.35
2018-09-09T12:52:07.225Z,36.47
2018-09-09T12:53:13.189Z,36.98
2018-09-09T12:54:19.474Z,36.54
2018-09-09T12:55:25.732Z,35.74
2018-09-09T12:56:31.702Z,37.02
2018-09-09T12:57:37.975Z,37.55
2018-09-09T12:58:44.231Z,36.46
2018-09-09T12:59:49.955Z,36.79
2018-09-09T13:00:55.907Z,36.90
2018-09-09T13:02:02.202Z,36.86
2018-09-09T13:03:08.513Z,37.14
2018-09-09T13:04:14.796Z,36.84
2018-09-09T13:05:21.021Z,37.86
2018-09-09T13:06:27.234Z,37.85
2018-09-09T13:07:33.507Z,37.57
2018-09-09T13:08:39.756Z,36.87
2018-09-09T13:09:46.031Z,36.34
2018-09-09T13:10:52.307Z,36.21
2018-09-09T13:11:58.555Z,36.51
2018-09-09T13:13:04.248Z,36.28
2018-09-09T13:14:11.062Z,36.10
2018-09-09T13:15:17.322Z,38.33
2018-09-09T13:16:23.579Z,37.11
2018-09-09T13:17:29.851Z,37.05
2018-09-09T13:18:36.154Z,37.24
2018-09-09T13:19:42.441Z,36.97
2018-09-09T13:20:48.730Z,35.84
2018-09-09T13:21:54.699Z,35.30
2018-09-09T13:23:01.042Z,35.37
2018-09-09T13:24:07.028Z,35.75
2018-09-09T13:25:13.296Z,35.94
2018-09-09T13:26:19.344Z,34.73
2018-09-09T13:27:25.466Z,34.23
2018-09-09T13:28:31.696Z,34.70
2018-09-09T13:29:38.151Z,35.21
2018-09-09T13:30:44.128Z,36.43
2018-09-09T13:31:50.503Z,35.15
2018-09-09T13:32:56.804Z,35.11
2018-09-09T13:34:02.793Z,36.33
2018-09-09T13:35:09.087Z,35.94
2018-09-09T13:36:15.009Z,36.06
2018-09-09T13:37:20.934Z,35.20
2018-09-09T13:38:27.270Z,34.86
2018-09-09T13:39:32.859Z,35.15
2018-09-09T13:40:38.769Z,35.07
2018-09-09T13:41:44.679Z,36.54
2018-09-09T13:42:50.285Z,36.04
2018-09-09T13:43:56.556Z,36.36
2018-09-09T13:45:02.452Z,34.53
2018-09-09T13:46:08.038Z,34.60
2018-09-09T13:47:13.929Z,34.76
2018-09-09T13:48:19.951Z,34.52
2018-09-09T13:49:25.914Z,36.64
2018-09-09T13:50:31.814Z,36.61
2018-09-09T13:51:38.020Z,34.13
2018-09-09T13:52:43.976Z,34.24
2018-09-09T13:53:49.689Z,34.55
2018-09-09T13:54:55.618Z,33.91
2018-09-09T13:56:01.904Z,33.98
2018-09-09T13:57:08.214Z,34.50
2018-09-09T13:58:14.562Z,34.73
2018-09-09T13:59:20.933Z,35.16
2018-09-09T14:00:27.236Z,35.12
2018-09-09T14:01:33.493Z,35.20
2018-09-09T14:02:39.739Z,35.36
2018-09-09T14:03:45.993Z,35.70
2018-09-09T14:04:52.492Z,35.72
2018-09-09T14:05:58.765Z,35.85
2018-09-09T14:07:04.698Z,37.40
2018-09-09T14:08:10.989Z,36.35
2018-09-09T14:09:17.215Z,35.46
2018-09-09T14:10:23.500Z,36.46
2018-09-09T14:11:29.754Z,37.15
2018-09-09T14:12:35.448Z,36.82
2018-09-09T14:13:41.450Z,37.24
2018-09-09T14:14:47.707Z,36.82
2018-09-09T14:15:53.985Z,35.63
2018-09-09T14:17:00.268Z,34.03
2018-09-09T14:18:06.532Z,34.19
2018-09-09T14:19:12.744Z,34.99
2018-09-09T14:20:19.002Z,35.41
2018-09-09T14:21:25.221Z,35.46
2018-09-09T14:22:31.345Z,34.98
2018-09-09T14:23:37.759Z,35.03
2018-09-09T14:24:43.648Z,35.31
2018-09-09T14:25:49.567Z,35.32
2018-09-09T14:26:55.801Z,34.89
2018-09-09T14:28:02.158Z,35.49
2018-09-09T14:29:08.624Z,36.47